Roy, Louisiana
Current Conditions -  °F | °C
As of 8:55 AM on Wednesday 22 Oct 2014 (Local Time) from KMNE Reporting Station
Clear Clear  
Wind Chill: 64°   Ceiling: Unl
Heat Index: 64°   Visibility: 10mi
Dew Point: 54°   Wind: 5mph
Humidity: 68%   Direction: 90°E
Pressure: 30.16"   Gusts: NA
Location:  32.2628°N, 93.0795°W
Report Text: KMNE 221355Z AUTO 09004KT 10SM CLR 18/12 A3016 RMK AO2
Loading
Personal Weather Stations






























Interactive Weather Map New forecast layout! Learn more

10-Day Weather Forecast

Advertisements
Track Severe Weather on mobile